Latest Weather Observations for Merimbula

IDN60801

Issued at 11:23 pm EDT Wednesday 27 January 2021 (issued every 10 minutes, with the page automatically refreshed every 10 minutes)

About weather observations | Map of weather stations | Latest weather observations for NSW | Other Formats
Station Details ID: 069147 Name: MERIMBULA AIRPORT AWS Lat: -36.91 Lon: 149.90 Height: 1.5 m
Data from the previous 72 hours. | See also: Recent months at Merimbula
Date/Time
EDT
Temp
°C
App
Temp
°C
Dew
Point
°C
Rel
Hum
%
Delta-T
°C
Wind Press
QNH
hPa
Press
MSL
hPa
Rain since
9am
mm
Dir  Spd
km/h
Gust
km/h
Spd
kts
Gust
kts
27/11:00pm 17.5 18.6 16.7 95 0.5 NW 6 15 3 8 1021.5 1021.5 7.6
27/10:30pm 17.6 17.2 16.1 91 0.9 E 13 20 7 11 1021.5 1021.5 7.6
27/10:21pm 17.0 18.0 16.4 96 0.4 NE 6 15 3 8 1021.6 1021.6 7.4
27/10:00pm 17.1 17.7 16.9 99 0.1 SW 9 15 5 8 1021.7 1021.7 7.0
27/09:30pm 17.3 16.8 17.0 98 0.2 SSE 15 26 8 14 1021.1 1021.1 6.0
27/09:26pm 17.4 17.0 17.1 98 0.2 SSE 15 26 8 14 1021.1 1021.1 6.0
27/09:00pm 17.7 18.0 17.1 96 0.4 SSE 11 20 6 11 1020.9 1020.9 5.6
27/08:30pm 17.6 17.5 17.0 96 0.4 SE 13 20 7 11 1020.4 1020.4 5.6
27/08:14pm 17.4 17.4 17.1 98 0.2 SE 13 20 7 11 1020.3 1020.3 5.6
27/08:07pm 17.4 17.4 17.1 98 0.2 SE 13 22 7 12 1020.3 1020.3 5.4
27/08:00pm 17.4 17.4 17.2 99 0.1 SE 13 20 7 11 1020.2 1020.2 5.4
27/07:34pm 17.5 17.9 17.3 99 0.1 ESE 11 22 6 12 1019.9 1019.9 4.2
27/07:30pm 17.4 17.4 17.2 99 0.1 SE 13 22 7 12 1019.9 1019.9 4.2
27/07:22pm 17.5 16.8 17.3 99 0.1 SE 17 26 9 14 1019.9 1019.9 4.2
27/07:00pm 17.7 17.1 17.5 99 0.1 SE 17 26 9 14 1019.7 1019.7 3.6
27/06:46pm 18.1 17.9 17.6 97 0.3 SE 15 24 8 13 1019.4 1019.4 1.6
27/06:42pm 18.4 18.6 17.6 95 0.5 SE 13 22 7 12 1019.2 1019.2 0.2
27/06:30pm 18.9 20.0 17.2 90 1.0 E 7 15 4 8 1019.0 1019.0 0.0
27/06:18pm 18.8 18.8 17.3 91 0.9 E 13 24 7 13 1018.6 1018.6 0.0
27/06:00pm 19.1 19.1 17.2 89 1.2 ESE 13 24 7 13 1018.9 1018.9 0.0
27/05:59pm 19.2 19.2 17.3 89 1.2 ESE 13 22 7 12 1018.9 1018.9 0.0
27/05:30pm 19.3 17.6 17.1 87 1.3 SSE 22 35 12 19 1018.1 1018.1 0.0
27/05:00pm 20.7 19.1 16.1 75 2.8 SE 19 32 10 17 1017.7 1017.7 0.0
27/04:30pm 21.4 20.8 15.7 70 3.4 ESE 13 22 7 12 1017.5 1017.5 0.0
27/04:00pm 22.7 22.0 15.3 63 4.4 ESE 13 19 7 10 1017.5 1017.5 0.0
27/03:30pm 22.7 22.5 14.8 61 4.7 ESE 9 15 5 8 1017.4 1017.4 0.0
27/03:00pm 22.6 21.7 13.7 57 5.2 ESE 11 20 6 11 1017.3 1017.3 0.0
27/02:30pm 23.1 21.9 12.7 52 6.0 ESE 11 17 6 9 1017.2 1017.2 0.0
27/02:00pm 23.1 22.3 13.0 53 5.8 SE 9 15 5 8 1017.2 1017.2 0.0
27/01:30pm 21.8 20.2 11.5 52 5.7 S 11 20 6 11 1017.3 1017.3 0.0
27/01:00pm 21.1 19.9 11.7 55 5.2 WSW 9 17 5 9 1017.1 1017.1 0.0
27/12:30pm 20.7 19.2 11.9 57 4.9 SSW 11 17 6 9 1017.0 1017.0 0.0
27/12:00pm 20.1 18.5 11.6 58 4.7 SSW 11 19 6 10 1017.0 1017.0 0.0
27/11:30am 19.5 17.5 11.5 60 4.4 S 13 20 7 11 1016.9 1016.9 0.0
27/11:00am 19.0 17.0 11.6 62 4.1 S 13 19 7 10 1016.5 1016.5 0.0
27/10:30am 18.8 16.5 11.6 63 4.0 S 15 24 8 13 1016.3 1016.3 0.0
27/10:00am 18.1 16.1 12.8 71 3.0 SSE 15 26 8 14 1015.9 1015.9 0.0
27/09:30am 17.7 15.2 12.4 71 2.9 S 17 26 9 14 1015.6 1015.6 0.0
27/09:00am 17.4 15.2 12.1 71 2.9 S 15 24 8 13 1015.4 1015.4 11.4
27/08:30am 17.4 15.4 12.7 74 2.6 S 15 20 8 11 1014.8 1014.8 11.4
27/08:00am 17.2 15.2 12.7 75 2.5 SSE 15 22 8 12 1014.0 1014.0 11.4
27/07:30am 16.9 15.0 13.0 78 2.2 S 15 20 8 11 1013.5 1013.5 11.4
27/07:00am 16.9 15.1 13.2 79 2.1 S 15 20 8 11 1012.9 1012.9 11.4
27/06:30am 16.9 15.6 13.6 81 1.9 S 13 20 7 11 1012.3 1012.3 11.4
27/06:00am 17.0 15.8 13.9 82 1.8 S 13 19 7 10 1011.7 1011.7 11.4
27/05:30am 17.1 16.0 14.2 83 1.7 S 13 22 7 12 1011.1 1011.1 11.4
27/05:00am 17.2 15.3 14.3 83 1.7 S 17 24 9 13 1010.6 1010.6 11.4
27/04:30am 17.0 16.7 14.5 85 1.4 S 9 13 5 7 1010.3 1010.3 11.4
27/04:00am 17.2 17.0 14.7 85 1.4 SSW 9 11 5 6 1010.0 1010.0 11.4
27/03:30am 17.4 16.8 14.7 84 1.6 S 11 17 6 9 1009.8 1009.8 11.4
27/03:00am 17.5 17.5 15.1 86 1.4 S 9 15 5 8 1009.6 1009.6 11.4
27/02:30am 17.1 17.6 15.6 91 0.9 S 7 13 4 7 1009.5 1009.5 11.4
27/02:00am 16.7 18.7 16.1 96 0.4 CALM 0 0 0 0 1009.3 1009.3 11.4
27/01:30am 16.9 19.0 16.3 96 0.4 CALM 0 0 0 0 1009.0 1009.0 11.4
27/01:00am 17.3 18.5 16.0 92 0.8 W 4 7 2 4 1008.9 1008.9 11.4
27/12:30am 17.5 18.2 15.7 89 1.1 SW 6 11 3 6 1008.7 1008.7 11.4
27/12:00am 17.5 18.3 15.8 90 1.0 SSW 6 9 3 5 1008.6 1008.6 11.4
 
Date/Time
EDT
Temp
°C
App
Temp
°C
Dew
Point
°C
Rel
Hum
%
Delta-T
°C
Wind Press
QNH
hPa
Press
MSL
hPa
Rain since
9am
mm
Dir  Spd
km/h
Gust
km/h
Spd
kts
Gust
kts
26/11:30pm 17.5 17.2 15.5 88 1.2 S 11 15 6 8 1008.4 1008.4 11.4
26/11:00pm 17.4 17.3 16.1 92 0.8 SSE 11 15 6 8 1008.3 1008.3 11.4
26/10:30pm 17.6 17.6 16.3 92 0.8 SSE 11 17 6 9 1008.3 1008.3 11.4
26/10:00pm 17.8 18.1 17.0 95 0.5 S 11 17 6 9 1008.0 1008.0 11.4
26/09:30pm 17.9 19.2 17.6 98 0.2 S 7 11 4 6 1007.5 1007.5 11.4
26/09:00pm 18.3 19.4 18.1 99 0.1 SSE 9 13 5 7 1006.9 1006.9 11.4
26/08:30pm 18.4 21.3 18.2 99 0.1 CALM 0 0 0 0 1006.8 1006.8 11.2
26/08:11pm 18.3 19.8 18.1 99 0.1 S 7 11 4 6 1006.4 1006.4 11.2
26/08:00pm 18.3 19.0 18.0 98 0.2 S 11 17 6 9 1006.3 1006.3 10.8
26/07:56pm 18.4 18.8 18.1 98 0.2 S 13 17 7 9 1006.1 1006.1 10.4
26/07:30pm 19.6 22.7 19.4 99 0.1 S 2 11 1 6 1005.7 1005.7 8.8
26/07:00pm 19.5 21.6 19.3 99 0.1 S 7 11 4 6 1004.9 1004.9 8.4
26/06:55pm 19.4 21.0 19.2 99 0.1 S 9 15 5 8 1004.6 1004.6 8.0
26/06:30pm 19.8 21.2 19.5 98 0.2 S 11 17 6 9 1004.0 1004.0 6.2
26/06:14pm 19.8 20.7 19.3 97 0.3 S 13 20 7 11 1004.0 1004.0 5.4
26/06:00pm 20.1 21.9 19.6 97 0.3 SE 9 19 5 10 1003.3 1003.3 4.6
26/05:53pm 20.5 22.9 20.0 97 0.3 SSE 7 11 4 6 1003.1 1003.1 4.2
26/05:38pm 20.8 23.3 20.3 97 0.3 S 7 13 4 7 1003.2 1003.2 3.8
26/05:30pm 20.9 23.5 20.4 97 0.3 S 7 11 4 6 1003.1 1003.1 3.2
26/05:00pm 21.3 24.9 20.5 95 0.5 S 2 6 1 3 1002.6 1002.6 2.4
26/04:30pm 21.4 23.2 20.4 94 0.6 S 11 20 6 11 1001.9 1001.9 1.8
26/04:00pm 21.3 23.1 20.3 94 0.6 S 11 17 6 9 1001.3 1001.3 1.4
26/03:30pm 21.3 22.1 19.9 92 0.9 SSE 15 22 8 12 1000.3 1000.3 0.8
26/03:00pm 23.3 24.6 20.2 83 2.0 S 13 19 7 10 1000.0 1000.0 0.6
26/02:30pm 23.1 25.3 20.4 85 1.7 SE 9 15 5 8 999.1 999.1 0.6
26/02:00pm 23.1 25.7 21.2 89 1.3 ESE 9 17 5 9 999.4 999.4 0.6
26/01:30pm 23.1 25.6 21.0 88 1.4 E 9 15 5 8 999.1 999.1 0.6
26/01:00pm 23.5 27.8 21.9 91 1.1 SE 2 13 1 7 999.0 999.0 0.6
26/12:30pm 22.4 25.5 21.0 92 0.9 S 6 9 3 5 998.7 998.7 0.6
26/12:07pm 22.1 25.2 21.1 94 0.7 ENE 6 15 3 8 998.6 998.6 0.6
26/12:00pm 22.4 26.6 21.7 96 0.5 SSE 2 15 1 8 998.6 998.6 0.6
26/11:30am 22.0 25.2 21.2 95 0.5 ESE 6 11 3 6 998.9 998.9 0.4
26/11:26am 22.1 25.7 21.3 95 0.5 SE 4 9 2 5 998.9 998.9 0.4
26/11:00am 22.3 26.3 21.3 94 0.7 SE 2 13 1 7 998.9 998.9 0.4
26/10:30am 22.5 26.6 20.8 90 1.1 CALM 0 0 0 0 998.5 998.5 0.0
26/10:00am 22.5 26.5 20.6 89 1.2 CALM 0 0 0 0 998.7 998.7 0.0
26/09:30am 22.5 26.7 21.0 91 1.0 CALM 0 0 0 0 998.7 998.7 0.0
26/09:00am 21.9 25.8 20.4 91 1.0 CALM 0 0 0 0 998.5 998.5 1.6
26/08:30am 21.0 24.7 20.0 94 0.6 CALM 0 0 0 0 998.5 998.5 1.6
26/08:00am 20.9 24.9 20.6 98 0.2 CALM 0 0 0 0 998.3 998.3 1.6
26/07:30am 20.2 23.9 20.0 99 0.1 CALM 0 0 0 0 997.9 997.9 1.6
26/07:00am 19.7 23.2 19.5 99 0.1 CALM 0 0 0 0 997.8 997.8 1.6
26/06:30am 19.1 22.3 18.9 99 0.1 CALM 0 0 0 0 997.6 997.6 1.6
26/06:00am 18.6 21.6 18.4 99 0.1 CALM 0 0 0 0 997.4 997.4 1.6
26/05:30am 18.9 22.0 18.7 99 0.1 CALM 0 0 0 0 997.4 997.4 1.6
26/05:00am 19.1 22.3 18.9 99 0.1 CALM 0 0 0 0 997.3 997.3 1.6
26/04:30am 19.4 22.7 19.2 99 0.1 CALM 0 0 0 0 997.4 997.4 1.6
26/04:00am 19.6 23.0 19.3 98 0.2 CALM 0 0 0 0 997.6 997.6 1.6
26/03:30am 20.0 23.6 19.7 98 0.2 CALM 0 0 0 0 997.8 997.8 1.6
26/03:00am 20.2 23.8 19.7 97 0.3 CALM 0 0 0 0 998.2 998.2 1.6
26/02:30am 20.2 23.9 19.9 98 0.2 CALM 0 0 0 0 998.6 998.6 1.6
26/02:00am 20.3 23.8 19.6 96 0.4 CALM 0 0 0 0 998.9 998.9 1.6
26/01:30am 20.4 24.0 19.7 96 0.4 CALM 0 0 0 0 999.1 999.1 1.6
26/01:00am 20.6 24.0 19.4 93 0.8 CALM 0 0 0 0 999.4 999.4 1.6
26/12:30am 21.0 24.6 19.8 93 0.8 CALM 0 0 0 0 999.8 999.8 1.6
26/12:00am 21.5 25.5 20.5 94 0.6 CALM 0 0 0 0 999.9 999.9 1.6
 
Date/Time
EDT
Temp
°C
App
Temp
°C
Dew
Point
°C
Rel
Hum
%
Delta-T
°C
Wind Press
QNH
hPa
Press
MSL
hPa
Rain since
9am
mm
Dir  Spd
km/h
Gust
km/h
Spd
kts
Gust
kts
25/11:30pm 21.9 25.8 20.4 91 1.0 CALM 0 0 0 0 1000.3 1000.3 1.6
25/11:00pm 22.1 25.2 20.2 89 1.2 NE 4 7 2 4 1000.5 1000.5 1.6
25/10:30pm 22.2 25.0 20.5 90 1.1 S 6 9 3 5 1000.6 1000.6 1.6
25/10:00pm 23.0 25.6 20.0 83 1.9 NNE 6 11 3 6 1000.6 1000.6 1.6
25/09:30pm 22.8 25.3 20.3 86 1.6 SE 7 11 4 6 1000.4 1000.4 1.6
25/09:00pm 23.9 23.9 19.8 78 2.7 NNE 19 32 10 17 1000.9 1000.9 1.6
25/08:30pm 23.3 26.1 20.8 86 1.6 WNW 7 13 4 7 999.7 999.7 1.6
25/08:00pm 23.7 26.9 21.2 86 1.6 N 6 13 3 7 1000.1 1000.1 1.4
25/07:30pm 26.8 28.6 20.4 68 4.2 WSW 11 15 6 8 1000.3 1000.3 0.0
25/07:00pm 26.5 30.0 19.6 66 4.5 CALM 0 6 0 3 999.4 999.4 0.0
25/06:30pm 26.7 28.5 19.6 65 4.6 NE 9 17 5 9 999.2 999.2 0.0
25/06:00pm 28.0 29.8 20.3 63 5.1 ENE 11 20 6 11 999.1 999.1 0.0
25/05:30pm 27.3 29.5 20.4 66 4.5 NE 9 19 5 10 999.2 999.2 0.0
25/05:00pm 27.1 27.4 20.4 66 4.4 NE 19 30 10 16 999.3 999.3 0.0
25/04:30pm 29.2 31.3 21.7 64 5.0 NE 13 24 7 13 999.7 999.7 0.0
25/04:00pm 27.5 28.8 20.8 67 4.4 NNE 15 22 8 12 1000.3 1000.3 0.0
25/03:30pm 28.9 30.1 21.4 64 5.0 NNE 17 30 9 16 1000.8 1000.8 0.0
25/03:00pm 30.8 32.7 22.1 59 5.9 NNE 15 28 8 15 1001.0 1001.0 0.0
25/02:30pm 29.8 31.0 21.5 61 5.6 NNE 17 30 9 16 1001.3 1001.3 0.0
25/02:00pm 29.8 30.0 22.0 63 5.3 NE 24 39 13 21 1001.2 1001.2 0.0
25/01:30pm 29.5 29.8 22.2 65 4.9 NE 24 37 13 20 1001.7 1001.7 0.0
25/01:00pm 29.7 30.6 22.7 66 4.8 NE 22 33 12 18 1002.1 1002.1 0.0
25/12:30pm 30.0 31.3 22.7 65 5.0 NE 20 33 11 18 1002.8 1002.8 0.0
25/12:00pm 29.9 31.3 22.6 65 5.0 NE 19 28 10 15 1003.3 1003.3 0.0
25/11:30am 29.8 31.4 22.8 66 4.8 NE 19 26 10 14 1003.7 1003.7 0.0
25/11:00am 29.2 31.2 22.9 69 4.3 ENE 17 24 9 13 1004.2 1004.2 0.0
25/10:30am 28.2 29.8 22.2 70 4.0 ENE 17 24 9 13 1004.8 1004.8 0.0
25/10:00am 27.0 28.5 21.3 71 3.8 NE 15 22 8 12 1005.2 1005.2 0.0
25/09:30am 27.6 29.4 20.4 65 4.7 NE 11 17 6 9 1005.5 1005.5 0.0
25/09:00am 25.3 28.9 19.7 71 3.6 CALM 0 0 0 0 1006.0 1006.0 0.0
25/08:30am 23.4 26.7 19.1 77 2.7 CALM 0 0 0 0 1006.2 1006.2 0.0
25/08:00am 21.5 24.4 18.1 81 2.1 CALM 0 0 0 0 1006.4 1006.4 0.0
25/07:30am 19.2 20.5 17.2 88 1.2 SSW 6 7 3 4 1006.5 1006.5 0.0
25/07:00am 17.0 17.6 15.9 93 0.6 SSW 7 9 4 5 1006.5 1006.5 0.0
25/06:30am 16.6 17.2 15.8 95 0.5 SSW 7 9 4 5 1006.5 1006.5 0.0
25/06:00am 16.7 17.0 16.1 96 0.4 SW 9 11 5 6 1006.5 1006.5 0.0
25/05:30am 16.9 17.3 16.3 96 0.4 SW 9 9 5 5 1006.5 1006.5 0.0
25/05:00am 17.0 17.7 16.0 94 0.6 SSW 7 9 4 5 1006.6 1006.6 0.0
25/04:30am 17.3 18.2 16.5 95 0.5 SSW 7 9 4 5 1006.7 1006.7 0.0
25/04:00am 17.4 17.8 16.4 94 0.6 SSW 9 11 5 6 1007.0 1007.0 0.0
25/03:30am 17.6 18.2 16.8 95 0.5 SSW 9 11 5 6 1007.3 1007.3 0.0
25/03:00am 18.1 19.4 17.6 97 0.3 SSW 7 9 4 5 1007.7 1007.7 0.0
25/02:30am 18.2 20.8 17.6 96 0.4 CALM 0 0 0 0 1008.0 1008.0 0.0
25/02:00am 18.3 20.9 17.5 95 0.5 CALM 0 0 0 0 1008.4 1008.4 0.0
25/01:30am 18.7 21.1 17.9 95 0.5 SSW 2 6 1 3 1008.6 1008.6 0.0
25/01:00am 19.4 22.5 18.7 96 0.4 CALM 0 0 0 0 1008.8 1008.8 0.0
25/12:30am 19.7 23.0 19.0 96 0.4 CALM 0 6 0 3 1009.1 1009.1 0.0
25/12:00am 20.0 23.4 19.3 96 0.4 CALM 0 0 0 0 1009.4 1009.4 0.0
 
Date/Time
EDT
Temp
°C
App
Temp
°C
Dew
Point
°C
Rel
Hum
%
Delta-T
°C
Wind Press
QNH
hPa
Press
MSL
hPa
Rain since
9am
mm
Dir  Spd
km/h
Gust
km/h
Spd
kts
Gust
kts
24/11:30pm 20.3 23.8 19.6 96 0.4 CALM 0 0 0 0 1009.6 1009.6 0.0

Other formats

Comma delimited format used in spreadsheet applications
http://www.bom.gov.au/fwo/IDN60801/IDN60801.95929.axf

JavaScript Object Notation format (JSON) in row-major order
http://www.bom.gov.au/fwo/IDN60801/IDN60801.95929.json

Data quality

Most of these data are generated automatically and are frequently updated. Quality checks on data are not normally performed. It is possible for incorrect values to appear. Refer to information at About Latest Weather Observations and please check the disclaimer before using these data.